Main page
METAR-TAF:

METAR-TAF

Airports :

Bahawalpur Airport

Bahawalpur, Pakistan

latitude: 29-20-53N, longitude: 71-43-04E, elevation: 119 m

METAR: missing

Time: 08:00 (03:00 UTC)

Forecast

The report was made 5 hours and 0 minutes ago, at 22:00 UTC
Forecast valid from 11 at 00 UTC to 11 at 18 UTC
Wind 5 kt from the Northeast
Visibility: 3000 m
Scattered clouds at a height of 4000 ft
Scattered clouds at a height of 12000 ft
smoke
Probability 30% :
Temporary
from 11 at 01 UTC to 11 at 04 UTC
Wind kt from the North
Visibility: 0800 m
Few clouds at a height of 4000 ft
Scattered clouds at a height of 12000 ft
mist
From 11 at 0800 UTC
Wind 5 kt from the Northeast
Visibility: 3500 m
Scattered clouds at a height of 4000 ft
Scattered clouds at a height of 12000 ft
haze

TAF: OPBW 102200Z 1100/1118 05005KT 3000 FU SCT040 SCT120 TN08/1101Z TX24/1110Z PROB30 TEMPO 1101/1104 00000KT 0800 BR FEW040 SCT120 FM110800 05005KT 3500 HZ SCT040 SCT120

Weather observations and forecasts of more than 4000 airports (METAR and TAF reports).

The available stations are represented by yellow and red dots on the map.

Hover mouse over dot to see the name of the station.

Then click to see weather observations and forecasts.

To change the map : click on the green buttons with a black cross to zoom in, on the green button with a dash to zoom out, or on the green arrows for adjacent maps.


METAR-TAF: